Time;durP1;ratioP1;P1;durP2;ratioP2;P2;SDS_P1;SDS_P2;PMS_P1;PMS_P2;Temp;Humidity;BMP_temperature;BMP_pressure;BME280_temperature;BME280_humidity;BME280_pressure;Samples;Min_cycle;Max_cycle;Signal;HPM_P1;HPM_P2
2022/05/23 00:02:18;;;;;;;0.00;0.00;;;;;;;-145.06;100.00;63404.56;10334254;28;20261;-62
2022/05/23 00:07:29;;;;;;;0.00;0.00;;;;;;;-145.06;100.00;63404.56;10361061;28;20013;-62
2022/05/23 00:12:30;;;;;;;0.00;0.00;;;;;;;-145.06;100.00;63404.56;10374392;28;20048;-62
2022/05/23 00:17:30;;;;;;;0.00;0.00;;;;;;;-145.06;100.00;63404.56;10373186;28;20080;-61
2022/05/23 00:22:31;;;;;;;0.00;0.00;;;;;;;-145.06;100.00;63404.56;10362486;28;20265;-61
2022/05/23 00:27:32;;;;;;;0.00;0.00;;;;;;;-145.06;100.00;63404.56;10359981;28;20477;-62
2022/05/23 00:37:55;;;;;;;0.00;0.00;;;;;;;-145.06;100.00;63404.56;10367599;28;20481;-61
2022/05/23 00:43:14;;;;;;;0.00;0.00;;;;;;;-145.06;100.00;63404.56;10333052;28;20045;-62
2022/05/23 00:48:17;;;;;;;0.00;0.00;;;;;;;-145.06;100.00;63404.56;10364146;28;20040;-62
2022/05/23 00:53:28;;;;;;;0.00;0.00;;;;;;;-145.06;100.00;63404.56;10362899;28;20167;-62
2022/05/23 00:58:40;;;;;;;0.00;0.00;;;;;;;-145.06;100.00;63404.56;10366858;28;20021;-61
2022/05/23 01:03:41;;;;;;;0.10;0.10;;;;;;;-145.06;100.00;63404.56;10366263;28;20143;-61
2022/05/23 01:08:44;;;;;;;0.00;0.00;;;;;;;-145.06;100.00;63404.56;10331363;28;20149;-61
2022/05/23 01:13:45;;;;;;;0.00;0.00;;;;;;;-145.06;100.00;63404.56;10331190;28;20615;-63
2022/05/23 01:18:46;;;;;;;0.00;0.00;;;;;;;-145.06;100.00;63404.56;10331508;28;20069;-60
2022/05/23 01:24:03;;;;;;;0.00;0.00;;;;;;;-145.06;100.00;63404.56;10363310;28;20022;-62
2022/05/23 01:29:11;;;;;;;0.00;0.00;;;;;;;-145.06;100.00;63404.56;10370981;28;20032;-63
2022/05/23 01:34:12;;;;;;;0.08;0.08;;;;;;;-145.06;100.00;63404.56;10330373;28;20054;-63
2022/05/23 01:39:12;;;;;;;0.00;0.00;;;;;;;-145.06;100.00;63404.56;10346657;28;20460;-63
2022/05/23 01:44:12;;;;;;;0.00;0.00;;;;;;;-145.06;100.00;63404.56;10338561;28;20036;-63
2022/05/23 01:49:12;;;;;;;0.00;0.00;;;;;;;-145.06;100.00;63404.56;10343841;28;20022;-63
2022/05/23 01:54:13;;;;;;;0.10;0.10;;;;;;;-145.06;100.00;63404.56;10367717;28;20026;-63
2022/05/23 02:04:32;;;;;;;0.00;0.00;;;;;;;-145.06;100.00;63404.56;10369450;28;20165;-63
2022/05/23 02:09:33;;;;;;;0.10;0.10;;;;;;;-145.06;100.00;63404.56;10369909;28;20022;-63
2022/05/23 02:14:34;;;;;;;0.10;0.10;;;;;;;-145.06;100.00;63404.56;10367738;28;20100;-63
2022/05/23 02:19:36;;;;;;;0.00;0.00;;;;;;;-145.06;100.00;63404.56;10337118;28;20161;-63
2022/05/23 02:24:36;;;;;;;0.05;0.05;;;;;;;-145.06;100.00;63404.56;10350733;28;20081;-63
2022/05/23 02:29:36;;;;;;;0.10;0.10;;;;;;;-145.06;100.00;63404.56;10328884;28;20088;-62
2022/05/23 02:34:37;;;;;;;0.00;0.00;;;;;;;-145.06;100.00;63404.56;10346710;28;20022;-63
2022/05/23 02:39:37;;;;;;;0.00;0.00;;;;;;;-145.06;100.00;63404.56;10358101;28;20066;-63
2022/05/23 02:44:38;;;;;;;0.10;0.10;;;;;;;-145.06;100.00;63404.56;10357070;28;20018;-62
2022/05/23 02:49:38;;;;;;;0.05;0.05;;;;;;;-145.06;100.00;63404.56;10346004;28;20024;-62
2022/05/23 02:54:39;;;;;;;0.10;0.10;;;;;;;-145.06;100.00;63404.56;10349371;28;20021;-63
2022/05/23 02:59:39;;;;;;;0.08;0.08;;;;;;;-145.06;100.00;63404.56;10368009;28;20531;-63
2022/05/23 03:04:39;;;;;;;0.10;0.10;;;;;;;-145.06;100.00;63404.56;10367927;28;20342;-62
2022/05/23 03:09:40;;;;;;;0.00;0.00;;;;;;;-145.06;100.00;63404.56;10366415;28;20033;-62
2022/05/23 03:14:40;;;;;;;0.03;0.03;;;;;;;-145.06;100.00;63404.56;10366687;28;20107;-63
2022/05/23 03:19:40;;;;;;;0.05;0.05;;;;;;;-145.06;100.00;63404.56;10360436;28;20079;-62
2022/05/23 03:30:00;;;;;;;0.00;0.00;;;;;;;-145.06;100.00;63404.56;10364317;28;20249;-63
2022/05/23 03:35:01;;;;;;;0.10;0.10;;;;;;;-145.06;100.00;63404.56;10325907;28;20035;-63
2022/05/23 03:40:04;;;;;;;0.10;0.10;;;;;;;-145.06;100.00;63404.56;10356012;28;20200;-63
2022/05/23 03:45:07;;;;;;;0.00;0.00;;;;;;;-145.06;100.00;63404.56;10332725;28;20014;-63
2022/05/23 03:50:08;;;;;;;0.10;0.10;;;;;;;-145.06;100.00;63404.56;10295798;28;20025;-62
2022/05/23 03:55:08;;;;;;;0.10;0.10;;;;;;;-145.06;100.00;63404.56;10349322;28;20050;-63
2022/05/23 04:00:12;;;;;;;0.10;0.10;;;;;;;-145.06;100.00;63404.56;10343563;28;20052;-63
2022/05/23 04:05:14;;;;;;;0.10;0.10;;;;;;;-145.06;100.00;63404.56;10347197;28;20018;-63
2022/05/23 04:10:17;;;;;;;0.10;0.10;;;;;;;-145.06;100.00;63404.56;10334974;28;20117;-61
2022/05/23 04:15:17;;;;;;;0.10;0.10;;;;;;;-145.06;100.00;63404.56;10353094;28;20029;-63
2022/05/23 04:20:18;;;;;;;0.00;0.00;;;;;;;-145.06;100.00;63404.56;10352253;28;20616;-63
2022/05/23 04:25:18;;;;;;;0.10;0.10;;;;;;;-145.06;100.00;63404.56;10344304;28;20022;-63
2022/05/23 04:30:19;;;;;;;0.10;0.10;;;;;;;-145.06;100.00;63404.56;10341273;28;20110;-63
2022/05/23 04:35:20;;;;;;;0.10;0.10;;;;;;;-145.06;100.00;63404.56;10351706;28;20080;-61
2022/05/23 04:40:26;;;;;;;0.10;0.10;;;;;;;-145.06;100.00;63404.56;10359344;28;20382;-63
2022/05/23 04:45:27;;;;;;;0.10;0.10;;;;;;;-145.06;100.00;63404.56;10350312;28;20017;-63
2022/05/23 04:50:27;;;;;;;0.10;0.10;;;;;;;-145.06;100.00;63404.56;10362959;28;20022;-63
2022/05/23 04:55:28;;;;;;;0.10;0.10;;;;;;;-145.06;100.00;63404.56;10369675;28;20277;-63
2022/05/23 05:00:29;;;;;;;0.10;0.10;;;;;;;-145.06;100.00;63404.56;10372936;28;20022;-63
2022/05/23 05:05:30;;;;;;;0.10;0.10;;;;;;;-145.06;100.00;63404.56;10371657;28;20446;-63
2022/05/23 05:10:30;;;;;;;0.10;0.10;;;;;;;-145.06;100.00;63404.56;10372474;28;20101;-63
2022/05/23 05:15:32;;;;;;;0.10;0.10;;;;;;;-145.06;100.00;63404.56;10356357;22;20053;-64
2022/05/23 05:20:32;;;;;;;0.10;0.10;;;;;;;-145.06;100.00;63404.56;10358312;28;20029;-64
2022/05/23 05:25:33;;;;;;;0.10;0.10;;;;;;;-145.06;100.00;63404.56;10357035;28;20083;-63
2022/05/23 05:30:40;;;;;;;0.10;0.10;;;;;;;-145.06;100.00;63404.56;10343268;28;20026;-65
2022/05/23 05:35:49;;;;;;;0.10;0.10;;;;;;;-145.06;100.00;63404.56;10346691;28;20288;-65
2022/05/23 05:41:01;;;;;;;0.00;0.00;;;;;;;-145.06;100.00;63404.56;10359134;28;20109;-63
2022/05/23 05:46:13;;;;;;;0.00;0.00;;;;;;;-145.06;100.00;63404.56;10351935;28;20022;-65
2022/05/23 05:51:17;;;;;;;0.00;0.00;;;;;;;-145.06;100.00;63404.56;10344427;28;20552;-65
2022/05/23 05:56:18;;;;;;;0.10;0.10;;;;;;;-145.06;100.00;63404.56;10348430;28;20030;-65
2022/05/23 06:01:18;;;;;;;0.00;0.00;;;;;;;-145.06;100.00;63404.56;10342390;28;20030;-64
2022/05/23 06:11:38;;;;;;;0.10;0.10;;;;;;;-145.06;100.00;63404.56;10344651;28;20021;-64
2022/05/23 06:16:39;;;;;;;0.00;0.00;;;;;;;-145.06;100.00;63404.56;10358220;28;20026;-64
2022/05/23 06:21:41;;;;;;;0.00;0.00;;;;;;;-145.06;100.00;63404.56;10345578;28;20393;-65
2022/05/23 06:26:41;;;;;;;0.00;0.00;;;;;;;-145.06;100.00;63404.56;10338585;28;20025;-65
2022/05/23 06:31:46;;;;;;;0.00;0.00;;;;;;;-145.06;100.00;63404.56;10343875;28;20485;-64
2022/05/23 06:36:46;;;;;;;0.10;0.10;;;;;;;-145.06;100.00;63404.56;10332275;28;20113;-65
2022/05/23 06:41:47;;;;;;;0.10;0.10;;;;;;;-145.06;100.00;63404.56;10354299;28;20407;-64
2022/05/23 06:46:48;;;;;;;0.00;0.00;;;;;;;-145.06;100.00;63404.56;10348917;28;20052;-64
2022/05/23 06:51:49;;;;;;;0.00;0.00;;;;;;;-145.06;100.00;63404.56;10337983;28;20026;-64
2022/05/23 06:56:50;;;;;;;0.00;0.00;;;;;;;-145.06;100.00;63404.56;10329990;28;20030;-65
2022/05/23 07:01:50;;;;;;;0.00;0.00;;;;;;;-145.06;100.00;63404.56;10350813;28;20022;-65
2022/05/23 07:12:23;;;;;;;0.00;0.00;;;;;;;-145.06;100.00;63404.56;10332762;28;20030;-61
2022/05/23 07:17:24;;;;;;;0.00;0.00;;;;;;;-145.06;100.00;63404.56;10328892;28;20030;-61
2022/05/23 07:22:24;;;;;;;0.00;0.00;;;;;;;-145.06;100.00;63404.56;10324750;28;20109;-64
2022/05/23 07:27:26;;;;;;;0.00;0.00;;;;;;;-145.06;100.00;63404.56;10330026;28;20465;-65
2022/05/23 07:32:29;;;;;;;0.00;0.00;;;;;;;-145.06;100.00;63404.56;10344717;28;20117;-65
2022/05/23 07:37:31;;;;;;;;;;;;;;;-145.06;100.00;63404.56;10358911;28;20457;-65
2022/05/23 07:42:31;;;;;;;0.00;0.00;;;;;;;-145.06;100.00;63404.56;10331816;28;19914;-65
2022/05/23 07:47:32;;;;;;;0.00;0.00;;;;;;;-145.06;100.00;63404.56;10355928;28;20465;-65
2022/05/23 07:52:32;;;;;;;0.00;0.00;;;;;;;-145.06;100.00;63404.56;10346673;28;20469;-65
2022/05/23 08:02:51;;;;;;;0.10;0.10;;;;;;;-145.06;100.00;63404.56;10349525;28;20037;-65
2022/05/23 08:07:52;;;;;;;0.00;0.00;;;;;;;-145.06;100.00;63404.56;10369070;28;20018;-66
2022/05/23 08:12:57;;;;;;;0.00;0.00;;;;;;;-145.06;100.00;63404.56;10345708;28;20039;-65
2022/05/23 08:17:58;;;;;;;0.00;0.00;;;;;;;-145.06;100.00;63404.56;10326483;28;20121;-65
2022/05/23 08:22:59;;;;;;;0.00;0.00;;;;;;;-145.06;100.00;63404.56;10323900;28;20027;-64
2022/05/23 08:27:59;;;;;;;0.00;0.00;;;;;;;-145.06;100.00;63404.56;10305095;28;20018;-65
2022/05/23 08:32:59;;;;;;;0.00;0.00;;;;;;;-145.06;100.00;63404.56;10343200;28;20385;-66
2022/05/23 08:38:00;;;;;;;0.00;0.00;;;;;;;-145.06;100.00;63404.56;10346081;28;20025;-65
2022/05/23 08:43:05;;;;;;;0.05;0.05;;;;;;;-145.06;100.00;63404.56;10356536;28;20117;-65
2022/05/23 08:48:29;;;;;;;0.10;0.10;;;;;;;-145.06;100.00;63404.56;10338358;28;20030;-62
2022/05/23 08:53:37;;;;;;;0.00;0.00;;;;;;;-145.06;100.00;63404.56;10353019;28;20037;-65
2022/05/23 08:58:45;;;;;;;0.03;0.03;;;;;;;-145.06;100.00;63404.56;10353234;28;20023;-65
2022/05/23 09:03:55;;;;;;;0.00;0.00;;;;;;;-145.06;100.00;63404.56;10344666;28;20034;-66
2022/05/23 09:08:59;;;;;;;0.00;0.00;;;;;;;-145.06;100.00;63404.56;10351609;28;20037;-65
2022/05/23 09:14:00;;;;;;;0.00;0.00;;;;;;;-145.06;100.00;63404.56;10352000;28;20035;-62
2022/05/23 09:19:09;;;;;;;0.10;0.10;;;;;;;-145.06;100.00;63404.56;10341794;28;20037;-64
2022/05/23 09:24:11;;;;;;;0.00;0.00;;;;;;;-145.06;100.00;63404.56;10358305;28;20033;-66
2022/05/23 09:29:12;;;;;;;0.10;0.10;;;;;;;-145.06;100.00;63404.56;10366900;28;20028;-65
2022/05/23 09:34:28;;;;;;;0.10;0.10;;;;;;;-145.06;100.00;63404.56;10348490;28;20026;-66
2022/05/23 09:39:30;;;;;;;0.00;0.00;;;;;;;-145.06;100.00;63404.56;10367560;28;20108;-66
2022/05/23 09:49:51;;;;;;;0.00;0.00;;;;;;;-145.06;100.00;63404.56;10338388;28;20022;-66
2022/05/23 09:54:56;;;;;;;0.00;0.00;;;;;;;-145.06;100.00;63404.56;10364439;28;20106;-66
2022/05/23 09:59:59;;;;;;;0.00;0.00;;;;;;;-145.06;100.00;63404.56;10348019;28;20058;-64
2022/05/23 10:04:59;;;;;;;0.00;0.00;;;;;;;-145.06;100.00;63404.56;10331859;28;20038;-65
2022/05/23 10:10:03;;;;;;;0.00;0.00;;;;;;;-145.06;100.00;63404.56;10331945;28;20027;-65
2022/05/23 10:15:25;;;;;;;0.00;0.00;;;;;;;-145.06;100.00;63404.56;10347901;28;20025;-66
2022/05/23 10:20:30;;;;;;;0.00;0.00;;;;;;;-145.06;100.00;63404.56;10371783;28;20100;-66
2022/05/23 10:25:43;;;;;;;0.00;0.00;;;;;;;-145.06;100.00;63404.56;10333535;28;20494;-65
2022/05/23 10:31:02;;;;;;;0.10;0.10;;;;;;;-145.06;100.00;63404.56;10337021;28;20060;-66
2022/05/23 10:36:19;;;;;;;0.10;0.10;;;;;;;-145.06;100.00;63404.56;10365037;28;20032;-66
2022/05/23 10:47:24;;;;;;;0.00;0.00;;;;;;;-145.06;100.00;63404.56;10360220;28;20026;-65
2022/05/23 10:52:41;;;;;;;0.00;0.00;;;;;;;-145.06;100.00;63404.56;10363025;28;20102;-65
2022/05/23 10:58:18;;;;;;;0.10;0.10;;;;;;;-145.06;100.00;63404.56;10344943;28;20018;-65
2022/05/23 11:03:32;;;;;;;0.00;0.00;;;;;;;-145.06;100.00;63404.56;10328992;28;20551;-63
2022/05/23 11:09:13;;;;;;;0.00;0.00;;;;;;;-145.06;100.00;63404.56;10329110;28;20026;-65
2022/05/23 11:14:46;;;;;;;0.00;0.00;;;;;;;-145.06;100.00;63404.56;10322710;28;20645;-66
2022/05/23 11:19:50;;;;;;;0.00;0.00;;;;;;;-145.06;100.00;63404.56;10482059;22;20061;-93
2022/05/23 11:24:59;;;;;;;;;;;;;;;-145.06;100.00;63404.56;10452858;28;20080;-93
2022/05/23 11:35:41;;;;;;;0.00;0.00;;;;;;;-145.06;100.00;63404.56;10387788;28;20029;-96
2022/05/23 11:41:00;;;;;;;0.00;0.00;;;;;;;-145.06;100.00;63404.56;10395784;28;20125;-96
2022/05/23 11:46:06;;;;;;;0.00;0.00;;;;;;;-145.06;100.00;63404.56;10412692;28;20034;-95
2022/05/23 11:51:12;;;;;;;0.10;0.10;;;;;;;-145.06;100.00;63404.56;10393746;28;20029;-94
2022/05/23 11:56:40;;;;;;;0.00;0.00;;;;;;;-145.06;100.00;63404.56;10387256;28;20072;-93
2022/05/23 12:01:40;;;;;;;0.00;0.00;;;;;;;-145.06;100.00;63404.56;10404585;28;20042;-93
2022/05/23 12:06:42;;;;;;;0.00;0.00;;;;;;;-145.06;100.00;63404.56;10398387;28;20107;-92
2022/05/23 12:11:53;;;;;;;0.00;0.00;;;;;;;-145.06;100.00;63404.56;10406193;28;20064;-93
2022/05/23 12:16:57;;;;;;;0.00;0.00;;;;;;;-145.06;100.00;63404.56;10364724;28;20034;-93
2022/05/23 12:22:16;;;;;;;0.00;0.00;;;;;;;-145.06;100.00;63404.56;10418989;28;20036;-94
2022/05/23 12:27:29;;;;;;;0.00;0.00;;;;;;;-145.06;100.00;63404.56;10399988;28;20037;-93
2022/05/23 12:32:32;;;;;;;0.00;0.00;;;;;;;-145.06;100.00;63404.56;10412917;28;20043;-94
2022/05/23 12:37:40;;;;;;;0.00;0.00;;;;;;;-145.06;100.00;63404.56;10398198;28;20067;-94
2022/05/23 12:42:59;;;;;;;0.10;0.10;;;;;;;-145.06;100.00;63404.56;10387295;28;20017;-94
2022/05/23 12:48:33;;;;;;;0.10;0.10;;;;;;;-145.06;100.00;63404.56;10389156;28;20019;-94
2022/05/23 12:54:26;;;;;;;0.00;0.00;;;;;;;-145.06;100.00;63404.56;10396252;28;20017;-93
2022/05/23 12:59:59;;;;;;;0.00;0.00;;;;;;;-145.06;100.00;63404.56;10343852;28;20052;-93
2022/05/23 13:05:38;;;;;;;0.00;0.00;;;;;;;-145.06;100.00;63404.56;10405871;28;20018;-94
2022/05/23 13:10:42;;;;;;;0.00;0.00;;;;;;;-145.06;100.00;63404.56;10403743;28;20015;-94
2022/05/23 13:15:43;;;;;;;0.00;0.00;;;;;;;-145.06;100.00;63404.56;10406561;28;20036;-94
2022/05/23 13:26:28;;;;;;;0.10;0.10;;;;;;;-145.06;100.00;63404.56;10335512;28;20042;-85
2022/05/23 13:31:34;;;;;;;0.00;0.00;;;;;;;-145.06;100.00;63404.56;10352912;28;20118;-86
2022/05/23 13:36:44;;;;;;;0.00;0.00;;;;;;;-145.06;100.00;63404.56;10352362;28;20414;-86
2022/05/23 13:41:45;;;;;;;0.00;0.00;;;;;;;-145.06;100.00;63404.56;10339296;28;20026;-86
2022/05/23 13:46:47;;;;;;;0.00;0.00;;;;;;;-145.06;100.00;63404.56;10337102;28;20112;-86
2022/05/23 13:51:54;;;;;;;0.10;0.10;;;;;;;-145.06;100.00;63404.56;10399044;28;20032;-86
2022/05/23 13:56:59;;;;;;;0.00;0.00;;;;;;;-145.06;100.00;63404.56;10417077;28;20112;-86
2022/05/23 14:02:05;;;;;;;0.00;0.00;;;;;;;-145.06;100.00;63404.56;10416745;28;20146;-86
2022/05/23 14:07:14;;;;;;;0.00;0.00;;;;;;;-145.06;100.00;63404.56;10417238;28;20104;-85
2022/05/23 14:12:23;;;;;;;0.10;0.10;;;;;;;-145.06;100.00;63404.56;10416410;28;20032;-86
2022/05/23 14:17:44;;;;;;;0.00;0.00;;;;;;;-145.06;100.00;63404.56;10416662;28;20524;-86
2022/05/23 14:23:04;;;;;;;0.00;0.00;;;;;;;-145.06;100.00;63404.56;10411629;28;20029;-85
2022/05/23 14:28:20;;;;;;;0.00;0.00;;;;;;;-145.06;100.00;63404.56;10416458;28;20110;-86
2022/05/23 14:33:31;;;;;;;0.00;0.00;;;;;;;-145.06;100.00;63404.56;10418035;28;20104;-86
2022/05/23 14:38:42;;;;;;;0.00;0.00;;;;;;;-145.06;100.00;63404.56;10418513;28;20030;-86
2022/05/23 14:43:43;;;;;;;0.00;0.00;;;;;;;-145.06;100.00;63404.56;10415928;28;20490;-87
2022/05/23 14:48:55;;;;;;;0.00;0.00;;;;;;;-145.06;100.00;63404.56;10414220;28;20026;-87
2022/05/23 15:04:38;;;;;;;0.00;0.00;;;;;;;-145.06;100.00;63404.56;10417406;28;20029;-87
2022/05/23 15:09:39;;;;;;;0.00;0.00;;;;;;;-145.06;100.00;63404.56;10417017;28;20022;-86
2022/05/23 15:14:39;;;;;;;0.00;0.00;;;;;;;-145.06;100.00;63404.56;10415943;28;20505;-88
2022/05/23 15:19:40;;;;;;;0.00;0.00;;;;;;;-145.06;100.00;63404.56;10411552;28;20037;-86
2022/05/23 15:24:40;;;;;;;0.00;0.00;;;;;;;-145.06;100.00;63404.56;10417330;28;20375;-86
2022/05/23 15:29:40;;;;;;;0.10;0.10;;;;;;;-145.06;100.00;63404.56;10416759;28;20029;-86
2022/05/23 15:34:41;;;;;;;0.10;0.10;;;;;;;-145.06;100.00;63404.56;10415964;28;20386;-86
2022/05/23 15:39:41;;;;;;;0.10;0.10;;;;;;;-145.06;100.00;63404.56;10416194;28;20037;-86
2022/05/23 15:44:41;;;;;;;0.10;0.10;;;;;;;-145.06;100.00;63404.56;10415218;28;20032;-86
2022/05/23 15:49:42;;;;;;;0.00;0.00;;;;;;;-145.06;100.00;63404.56;10412543;28;20501;-86
2022/05/23 15:54:42;;;;;;;0.00;0.00;;;;;;;-145.06;100.00;63404.56;10418400;28;20037;-86
2022/05/23 15:59:42;;;;;;;0.00;0.00;;;;;;;-145.06;100.00;63404.56;10416330;28;20537;-86
2022/05/23 16:04:43;;;;;;;0.00;0.00;;;;;;;-145.06;100.00;63404.56;10415719;28;20036;-84
2022/05/23 16:09:43;;;;;;;0.10;0.10;;;;;;;-145.06;100.00;63404.56;10417939;28;20029;-85
2022/05/23 16:14:43;;;;;;;0.10;0.10;;;;;;;-145.06;100.00;63404.56;10416538;28;20033;-86
2022/05/23 16:19:45;;;;;;;0.10;0.10;;;;;;;-145.06;100.00;63404.56;10410657;28;20025;-85
2022/05/23 16:24:45;;;;;;;0.00;0.00;;;;;;;-145.06;100.00;63404.56;10424049;28;20075;-86
2022/05/23 16:29:45;;;;;;;0.00;0.00;;;;;;;-145.06;100.00;63404.56;10425409;28;20379;-87
2022/05/23 16:40:05;;;;;;;0.00;0.00;;;;;;;-145.06;100.00;63404.56;10424515;28;20485;-85
2022/05/23 16:45:06;;;;;;;0.00;0.00;;;;;;;-145.06;100.00;63404.56;10422105;28;20029;-86
2022/05/23 16:50:07;;;;;;;0.00;0.00;;;;;;;-145.06;100.00;63404.56;10416812;28;20021;-85
2022/05/23 16:55:09;;;;;;;0.00;0.00;;;;;;;-145.06;100.00;63404.56;10422562;28;20021;-86
2022/05/23 17:00:10;;;;;;;0.10;0.10;;;;;;;-145.06;100.00;63404.56;10423318;28;20044;-86
2022/05/23 17:05:10;;;;;;;0.00;0.00;;;;;;;-145.06;100.00;63404.56;10421863;28;20041;-86
2022/05/23 17:10:11;;;;;;;0.10;0.10;;;;;;;-145.06;100.00;63404.56;10424044;28;20029;-86
2022/05/23 17:15:12;;;;;;;0.00;0.00;;;;;;;-145.06;100.00;63404.56;10422316;28;20096;-86
2022/05/23 17:20:14;;;;;;;0.00;0.00;;;;;;;-145.06;100.00;63404.56;10411587;22;20050;-65
2022/05/23 17:25:14;;;;;;;0.10;0.10;;;;;;;-145.06;100.00;63404.56;10371920;28;20469;-65
2022/05/23 17:30:15;;;;;;;0.00;0.00;;;;;;;-145.06;100.00;63404.56;10411191;28;20032;-65
2022/05/23 17:35:17;;;;;;;0.00;0.00;;;;;;;-145.06;100.00;63404.56;10412899;28;20021;-65
2022/05/23 17:40:17;;;;;;;0.00;0.00;;;;;;;-145.06;100.00;63404.56;10414003;28;20017;-64
2022/05/23 17:45:18;;;;;;;0.00;0.00;;;;;;;-145.06;100.00;63404.56;10413407;28;20028;-65
2022/05/23 17:50:19;;;;;;;0.00;0.00;;;;;;;-145.06;100.00;63404.56;10407215;28;20025;-65
2022/05/23 17:55:22;;;;;;;0.00;0.00;;;;;;;-145.06;100.00;63404.56;10412438;28;20029;-64
2022/05/23 18:00:24;;;;;;;0.00;0.00;;;;;;;-145.06;100.00;63404.56;10413423;28;20108;-64
2022/05/23 18:05:27;;;;;;;0.00;0.00;;;;;;;-145.06;100.00;63404.56;10412213;28;20515;-65
2022/05/23 18:10:28;;;;;;;0.10;0.10;;;;;;;-145.06;100.00;63404.56;10412804;28;20108;-65
2022/05/23 18:20:47;;;;;;;0.00;0.00;;;;;;;-145.06;100.00;63404.56;10405820;28;20042;-65
2022/05/23 18:25:48;;;;;;;0.10;0.10;;;;;;;-145.06;100.00;63404.56;10411304;28;20380;-65
2022/05/23 18:30:49;;;;;;;0.00;0.00;;;;;;;-145.06;100.00;63404.56;10411974;28;20071;-65
2022/05/23 18:35:49;;;;;;;0.00;0.00;;;;;;;-145.06;100.00;63404.56;10409975;28;20037;-64
2022/05/23 18:40:50;;;;;;;0.10;0.10;;;;;;;-145.06;100.00;63404.56;10411185;28;20021;-65
2022/05/23 18:45:51;;;;;;;0.10;0.10;;;;;;;-145.06;100.00;63404.56;10409910;28;20477;-65
2022/05/23 18:50:51;;;;;;;0.10;0.10;;;;;;;-145.06;100.00;63404.56;10405017;28;20027;-65
2022/05/23 18:55:51;;;;;;;0.00;0.00;;;;;;;-145.06;100.00;63404.56;10409827;28;20021;-65
2022/05/23 19:00:52;;;;;;;0.10;0.10;;;;;;;-145.06;100.00;63404.56;10411241;28;20400;-65
2022/05/23 19:05:53;;;;;;;0.03;0.03;;;;;;;-145.06;100.00;63404.56;10408793;28;20435;-65
2022/05/23 19:10:53;;;;;;;0.00;0.00;;;;;;;-145.06;100.00;63404.56;10410454;28;20025;-65
2022/05/23 19:15:53;;;;;;;0.10;0.10;;;;;;;-145.06;100.00;63404.56;10410187;28;20021;-65
2022/05/23 19:20:55;;;;;;;0.10;0.10;;;;;;;-145.06;100.00;63404.56;10404024;28;20045;-64
2022/05/23 19:25:56;;;;;;;0.00;0.00;;;;;;;-145.06;100.00;63404.56;10409495;28;20046;-65
2022/05/23 19:30:57;;;;;;;0.00;0.00;;;;;;;-145.06;100.00;63404.56;10410623;28;20053;-64
2022/05/23 19:35:57;;;;;;;0.07;0.07;;;;;;;-145.06;100.00;63404.56;10409433;28;20021;-65
2022/05/23 19:40:57;;;;;;;0.10;0.10;;;;;;;-145.06;100.00;63404.56;10336367;28;20061;-65
2022/05/23 19:46:00;;;;;;;0.10;0.10;;;;;;;-145.06;100.00;63404.56;10326020;28;20076;-64
2022/05/23 19:51:00;;;;;;;0.10;0.10;;;;;;;-145.06;100.00;63404.56;10330862;28;20273;-64
2022/05/23 19:56:01;;;;;;;0.10;0.10;;;;;;;-145.06;100.00;63404.56;10327883;28;20029;-65
2022/05/23 20:01:01;;;;;;;0.00;0.00;;;;;;;-145.06;100.00;63404.56;10340834;28;20041;-64
2022/05/23 20:11:22;;;;;;;0.00;0.00;;;;;;;-145.06;100.00;63404.56;10373029;28;20508;-64
2022/05/23 20:16:23;;;;;;;0.00;0.00;;;;;;;-145.06;100.00;63404.56;10343703;28;20023;-64
2022/05/23 20:21:23;;;;;;;0.03;0.03;;;;;;;-145.06;100.00;63404.56;10343153;28;20026;-65
2022/05/23 20:26:24;;;;;;;0.10;0.10;;;;;;;-145.06;100.00;63404.56;10333796;28;20022;-65
2022/05/23 20:31:24;;;;;;;0.10;0.10;;;;;;;-145.06;100.00;63404.56;10334209;28;20354;-64
2022/05/23 20:36:25;;;;;;;0.10;0.10;;;;;;;-145.06;100.00;63404.56;10332867;28;20056;-64
2022/05/23 20:41:25;;;;;;;0.10;0.10;;;;;;;-145.06;100.00;63404.56;10344562;28;20062;-65
2022/05/23 20:46:33;;;;;;;0.10;0.10;;;;;;;-145.06;100.00;63404.56;10332382;28;20026;-65
2022/05/23 20:51:35;;;;;;;0.10;0.10;;;;;;;-145.06;100.00;63404.56;10342433;28;20021;-65
2022/05/23 20:56:36;;;;;;;0.10;0.10;;;;;;;-145.06;100.00;63404.56;10332041;28;20018;-65
2022/05/23 21:01:59;;;;;;;0.08;0.08;;;;;;;-145.06;100.00;63404.56;10361854;28;20014;-65
2022/05/23 21:07:03;;;;;;;0.05;0.05;;;;;;;-145.06;100.00;63404.56;10371429;28;20547;-66
2022/05/23 21:12:03;;;;;;;;;;;;;;;-145.06;100.00;63404.56;10373085;28;20501;-66
2022/05/23 21:17:15;;;;;;;0.00;0.00;;;;;;;-145.06;100.00;63404.56;10343930;28;19961;-65
2022/05/23 21:22:22;;;;;;;0.00;0.00;;;;;;;-145.06;100.00;63404.56;10348318;28;20289;-65
2022/05/23 21:27:23;;;;;;;0.08;0.08;;;;;;;-145.06;100.00;63404.56;10330295;28;20021;-66
2022/05/23 21:32:23;;;;;;;0.00;0.00;;;;;;;-145.06;100.00;63404.56;10356669;28;20025;-66
2022/05/23 21:37:23;;;;;;;0.10;0.10;;;;;;;-145.06;100.00;63404.56;10356888;28;20026;-66
2022/05/23 21:47:43;;;;;;;0.10;0.10;;;;;;;-145.06;100.00;63404.56;10330544;28;20027;-67
2022/05/23 21:52:43;;;;;;;0.10;0.10;;;;;;;-145.06;100.00;63404.56;10361566;28;20473;-67
2022/05/23 21:57:43;;;;;;;0.10;0.10;;;;;;;-145.06;100.00;63404.56;10353474;28;20546;-67
2022/05/23 22:02:43;;;;;;;0.10;0.10;;;;;;;-145.06;100.00;63404.56;10370842;28;20030;-67
2022/05/23 22:07:44;;;;;;;0.10;0.10;;;;;;;-145.06;100.00;63404.56;10369377;28;20022;-67
2022/05/23 22:12:44;;;;;;;0.10;0.10;;;;;;;-145.06;100.00;63404.56;10370336;28;20036;-67
2022/05/23 22:17:44;;;;;;;0.10;0.10;;;;;;;-145.06;100.00;63404.56;10368927;28;20034;-66
2022/05/23 22:22:46;;;;;;;0.10;0.10;;;;;;;-145.06;100.00;63404.56;10344768;28;20115;-66
2022/05/23 22:27:46;;;;;;;0.10;0.10;;;;;;;-145.06;100.00;63404.56;10343202;28;20029;-66
2022/05/23 22:32:46;;;;;;;0.10;0.10;;;;;;;-145.06;100.00;63404.56;10369418;28;20022;-66
2022/05/23 22:37:47;;;;;;;0.10;0.10;;;;;;;-145.06;100.00;63404.56;10369160;28;20481;-66
2022/05/23 22:42:47;;;;;;;0.10;0.10;;;;;;;-145.06;100.00;63404.56;10368850;28;20025;-66
2022/05/23 22:47:48;;;;;;;0.10;0.10;;;;;;;-145.06;100.00;63404.56;10368273;28;20105;-67
2022/05/23 22:52:49;;;;;;;0.10;0.10;;;;;;;-145.06;100.00;63404.56;10343112;28;20023;-68
2022/05/23 22:57:50;;;;;;;0.10;0.10;;;;;;;-145.06;100.00;63404.56;10327392;28;20038;-66
2022/05/23 23:08:10;;;;;;;0.10;0.10;;;;;;;-145.06;100.00;63404.56;10367037;28;20033;-65
2022/05/23 23:13:10;;;;;;;0.10;0.10;;;;;;;-145.06;100.00;63404.56;10368118;28;20100;-65
2022/05/23 23:18:10;;;;;;;0.00;0.00;;;;;;;-145.06;100.00;63404.56;10385502;22;20071;-65
2022/05/23 23:23:11;;;;;;;0.03;0.03;;;;;;;-145.06;100.00;63404.56;10423953;28;20037;-64
2022/05/23 23:28:11;;;;;;;0.10;0.10;;;;;;;-145.06;100.00;63404.56;10402038;28;20331;-65
2022/05/23 23:38:30;;;;;;;0.10;0.10;;;;;;;-145.06;100.00;63404.56;10371591;28;20021;-64
2022/05/23 23:43:30;;;;;;;0.10;0.10;;;;;;;-145.06;100.00;63404.56;10405278;28;20029;-65
2022/05/23 23:48:31;;;;;;;0.10;0.10;;;;;;;-145.06;100.00;63404.56;10396578;28;20478;-64
2022/05/23 23:53:31;;;;;;;0.10;0.10;;;;;;;-145.06;100.00;63404.56;10384983;28;20024;-63
2022/05/23 23:58:31;;;;;;;0.10;0.10;;;;;;;-145.06;100.00;63404.56;10396594;28;20016;-64
